Time;durP1;ratioP1;P1;durP2;ratioP2;P2;SDS_P1;SDS_P2;PMS_P1;PMS_P2;Temp;Humidity;BMP_temperature;BMP_pressure;BME280_temperature;BME280_humidity;BME280_pressure;Samples;Min_cycle;Max_cycle;Signal;HPM_P1;HPM_P2
2022/09/13 00:01:55;;;;;;;23.27;15.05;;;17.50;99.90;;;;;;4935822;29;20058;-96
2022/09/13 00:04:21;;;;;;;24.67;16.95;;;17.50;99.90;;;;;;4936112;29;20551;-96
2022/09/13 00:06:47;;;;;;;31.15;18.27;;;17.50;99.90;;;;;;4937332;29;20048;-96
2022/09/13 00:09:13;;;;;;;24.50;16.25;;;17.50;99.90;;;;;;4937370;29;20404;-96
2022/09/13 00:11:44;;;;;;;23.95;17.08;;;17.50;99.90;;;;;;4937572;29;20054;-96
2022/09/13 00:14:12;;;;;;;25.02;17.33;;;17.50;99.90;;;;;;4937584;29;20094;-96
2022/09/13 00:16:38;;;;;;;25.70;17.58;;;17.50;99.90;;;;;;4936946;29;20156;-96
2022/09/13 00:19:15;;;;;;;24.33;16.38;;;17.40;99.90;;;;;;4937011;29;20071;-96
2022/09/13 00:21:47;;;;;;;28.27;18.15;;;17.40;99.90;;;;;;4935685;29;20058;-96
2022/09/13 00:24:13;;;;;;;30.42;18.33;;;17.60;99.90;;;;;;4935907;29;20047;-96
2022/09/13 00:26:39;;;;;;;27.63;18.50;;;17.40;99.90;;;;;;4936628;29;20579;-96
2022/09/13 00:29:10;;;;;;;26.98;18.20;;;17.40;99.90;;;;;;4938619;29;20476;-96
2022/09/13 00:31:38;;;;;;;24.98;16.73;;;17.30;99.90;;;;;;4940183;29;20082;-96
2022/09/13 00:34:04;;;;;;;27.73;16.13;;;17.30;99.90;;;;;;4939222;29;20138;-96
2022/09/13 00:36:30;;;;;;;22.83;15.95;;;17.30;99.90;;;;;;4923412;29;20083;-96
2022/09/13 00:38:56;;;;;;;25.85;17.02;;;17.30;99.90;;;;;;4924032;29;20111;-96
2022/09/13 00:41:22;;;;;;;27.00;17.20;;;17.60;99.90;;;;;;4923217;29;20401;-96
2022/09/13 00:43:57;;;;;;;30.60;19.15;;;17.30;99.90;;;;;;4923419;29;20078;-95
2022/09/13 00:46:35;;;;;;;29.00;19.50;;;17.30;99.90;;;;;;4923705;29;20043;-96
2022/09/13 00:49:17;;;;;;;29.92;19.15;;;17.20;99.90;;;;;;4939081;29;20503;-95
2022/09/13 00:51:56;;;;;;;27.52;17.75;;;17.20;99.90;;;;;;4939002;29;20115;-96
2022/09/13 00:54:32;;;;;;;30.08;18.02;;;17.20;99.90;;;;;;4924105;29;20185;-96
2022/09/13 00:57:03;;;;;;;28.60;18.42;;;17.30;99.90;;;;;;4923582;29;20047;-96
2022/09/13 00:59:34;;;;;;;30.38;19.67;;;17.20;99.90;;;;;;4923543;29;20408;-96
2022/09/13 01:02:02;;;;;;;34.53;21.23;;;17.20;99.90;;;;;;4938729;29;20040;-96
2022/09/13 01:04:36;;;;;;;37.10;23.02;;;17.30;99.90;;;;;;4922778;29;20511;-96
2022/09/13 01:07:16;;;;;;;39.70;24.15;;;17.20;99.90;;;;;;4907450;29;20051;-95
2022/09/13 01:09:48;;;;;;;41.80;24.42;;;17.20;99.90;;;;;;4922366;29;20043;-96
2022/09/13 01:12:26;;;;;;;41.60;25.63;;;17.20;99.90;;;;;;4938357;29;20135;-96
2022/09/13 01:14:56;;;;;;;41.50;25.67;;;17.20;99.90;;;;;;4923438;29;20047;-96
2022/09/13 01:17:26;;;;;;;39.40;23.88;;;17.20;99.90;;;;;;4923061;29;20044;-96
2022/09/13 01:19:52;;;;;;;36.88;22.13;;;17.20;99.90;;;;;;4973328;28;20063;-96
2022/09/13 01:22:38;;;;;;;36.03;21.15;;;17.10;99.90;;;;;;4957845;29;20139;-96
2022/09/13 01:25:27;;;;;;;38.17;20.45;;;17.20;99.90;;;;;;4955744;29;20047;-96
2022/09/13 01:28:18;;;;;;;32.55;20.20;;;17.20;99.90;;;;;;4937518;29;20057;-96
2022/09/13 01:30:51;;;;;;;32.60;19.90;;;17.50;99.90;;;;;;4937953;29;20122;-96
2022/09/13 01:33:25;;;;;;;36.63;20.48;;;17.10;99.90;;;;;;4933972;29;20047;-96
2022/09/13 01:36:02;;;;;;;32.30;19.25;;;17.20;99.90;;;;;;4929576;29;20062;-96
2022/09/13 01:38:51;;;;;;;29.52;17.77;;;17.20;99.90;;;;;;4930698;29;20043;-96
2022/09/13 01:41:41;;;;;;;24.58;16.05;;;17.10;99.90;;;;;;4950932;29;20620;-96
2022/09/13 01:44:46;;;;;;;28.95;16.67;;;17.20;99.90;;;;;;4932975;29;20094;-96
2022/09/13 01:47:34;;;;;;;23.30;15.18;;;16.90;99.90;;;;;;4931746;29;20243;-96
2022/09/13 01:50:09;;;;;;;21.77;13.02;;;17.30;99.90;;;;;;4948781;28;20044;-96
2022/09/13 01:52:53;;;;;;;22.08;12.85;;;17.20;99.90;;;;;;4923546;29;20408;-95
2022/09/13 01:55:39;;;;;;;20.83;13.40;;;17.20;99.90;;;;;;4924081;29;20134;-96
2022/09/13 01:58:25;;;;;;;24.30;11.98;;;17.20;99.90;;;;;;4920887;29;20488;-95
2022/09/13 02:01:07;;;;;;;21.10;12.38;;;17.10;99.90;;;;;;4904760;29;20508;-96
2022/09/13 02:03:42;;;;;;;19.13;11.45;;;17.10;99.90;;;;;;4921164;29;20050;-96
2022/09/13 02:06:12;;;;;;;17.38;11.73;;;17.10;99.90;;;;;;4905021;29;20050;-96
2022/09/13 02:08:59;;;;;;;18.55;11.75;;;17.20;99.90;;;;;;4905836;29;20047;-96
2022/09/13 02:11:26;;;;;;;18.77;11.50;;;17.20;99.90;;;;;;4906040;29;20043;-96
2022/09/13 02:13:58;;;;;;;17.60;11.90;;;17.20;99.90;;;;;;4906592;29;20457;-96
2022/09/13 02:16:41;;;;;;;20.67;11.75;;;17.20;99.90;;;;;;4922776;29;20047;-96
2022/09/13 02:19:14;;;;;;;20.63;12.02;;;17.20;99.90;;;;;;4905395;29;20543;-96
2022/09/13 02:21:45;;;;;;;19.25;12.65;;;17.20;99.90;;;;;;4939298;29;20144;-96
2022/09/13 02:24:18;;;;;;;18.55;11.48;;;17.40;99.90;;;;;;4921602;29;20043;-96
2022/09/13 02:26:48;;;;;;;15.90;11.43;;;17.30;99.90;;;;;;4919546;29;20182;-96
2022/09/13 02:29:18;;;;;;;15.55;11.07;;;17.30;99.90;;;;;;4904995;29;20048;-96
2022/09/13 02:32:02;;;;;;;19.67;11.38;;;17.30;99.90;;;;;;4937914;29;20048;-96
2022/09/13 02:34:35;;;;;;;18.08;11.20;;;17.30;99.90;;;;;;4905964;29;20055;-96
2022/09/13 02:37:03;;;;;;;;;;;17.30;99.90;;;;;;4908109;29;20048;-96
2022/09/13 02:39:34;;;;;;;16.52;11.73;;;17.20;99.90;;;;;;4939960;29;19923;-96
2022/09/13 02:42:25;;;;;;;19.25;11.85;;;17.30;99.90;;;;;;4938208;29;20044;-96
2022/09/13 02:44:55;;;;;;;17.35;11.75;;;17.30;99.90;;;;;;4937360;29;20051;-96
2022/09/13 02:47:38;;;;;;;15.65;11.68;;;17.30;99.90;;;;;;4906719;29;20464;-96
2022/09/13 02:50:21;;;;;;;17.38;11.13;;;17.40;99.90;;;;;;4906182;29;20088;-96
2022/09/13 02:53:11;;;;;;;20.40;11.68;;;17.30;99.90;;;;;;4906697;29;20067;-96
2022/09/13 02:55:51;;;;;;;17.67;11.77;;;17.10;99.90;;;;;;4922895;29;20060;-96
2022/09/13 02:58:30;;;;;;;16.90;11.65;;;17.40;99.90;;;;;;4906511;29;20067;-96
2022/09/13 03:00:58;;;;;;;19.63;12.15;;;17.40;99.90;;;;;;4905232;29;20095;-96
2022/09/13 03:03:24;;;;;;;22.48;13.43;;;17.40;99.90;;;;;;4903727;29;20055;-96
2022/09/13 03:05:56;;;;;;;22.95;13.68;;;17.50;99.90;;;;;;4903421;29;20047;-96
2022/09/13 03:08:26;;;;;;;24.20;14.35;;;17.50;99.90;;;;;;4918866;29;20139;-96
2022/09/13 03:11:07;;;;;;;26.88;14.82;;;17.50;99.90;;;;;;4886032;29;20485;-96
2022/09/13 03:14:08;;;;;;;13.15;6.50;;;17.60;99.90;;;;;;4904882;29;20071;-96
2022/09/13 03:17:12;;;;;;;11.48;5.72;;;17.50;99.90;;;;;;4917753;29;20048;-96
2022/09/13 03:20:02;;;;;;;11.82;5.47;;;17.40;99.90;;;;;;4843124;29;20064;-96
2022/09/13 03:22:50;;;;;;;8.20;4.75;;;17.30;99.90;;;;;;4922607;29;20043;-96
2022/09/13 03:25:40;;;;;;;8.07;3.55;;;17.30;99.90;;;;;;4920189;29;20138;-96
2022/09/13 03:28:34;;;;;;;8.70;3.42;;;17.20;99.90;;;;;;4935625;29;20075;-95
2022/09/13 03:31:11;;;;;;;6.45;2.40;;;17.20;99.90;;;;;;4935562;29;20139;-95
2022/09/13 03:34:06;;;;;;;6.40;2.30;;;16.70;99.90;;;;;;4935684;29;20054;-94
2022/09/13 03:36:50;;;;;;;5.32;1.77;;;17.10;99.90;;;;;;4918957;29;20047;-95
2022/09/13 03:40:08;;;;;;;7.10;1.95;;;17.10;99.90;;;;;;4933243;29;20051;-95
2022/09/13 03:42:45;;;;;;;4.20;1.88;;;17.30;99.90;;;;;;4885612;29;20070;-96
2022/09/13 03:45:25;;;;;;;4.05;1.42;;;17.20;99.90;;;;;;4934963;29;20661;-96
2022/09/13 03:47:55;;;;;;;3.83;1.45;;;17.10;99.90;;;;;;4936349;29;20052;-96
2022/09/13 03:50:25;;;;;;;6.38;1.80;;;17.20;99.90;;;;;;4936471;29;20134;-96
2022/09/13 03:52:58;;;;;;;4.40;1.60;;;17.10;99.90;;;;;;4935751;29;20257;-96
2022/09/13 03:55:25;;;;;;;4.30;1.67;;;17.10;99.90;;;;;;4920902;29;20110;-96
2022/09/13 03:57:50;;;;;;;5.03;1.85;;;17.20;99.90;;;;;;4938605;29;20043;-96
2022/09/13 04:00:17;;;;;;;5.63;1.95;;;17.10;99.90;;;;;;4938991;29;20058;-96
2022/09/13 04:02:46;;;;;;;4.78;2.00;;;17.10;99.90;;;;;;4938134;29;20470;-96
2022/09/13 04:05:12;;;;;;;7.97;2.35;;;17.10;99.90;;;;;;4936828;29;20044;-96
2022/09/13 04:07:37;;;;;;;7.45;2.60;;;17.10;99.90;;;;;;4937846;29;20054;-96
2022/09/13 04:10:04;;;;;;;8.52;2.80;;;17.10;99.90;;;;;;4936629;29;20059;-96
2022/09/13 04:12:30;;;;;;;5.57;2.33;;;17.10;99.90;;;;;;4939085;29;20132;-96
2022/09/13 04:14:56;;;;;;;7.20;2.03;;;17.10;99.90;;;;;;4936392;29;20062;-96
2022/09/13 04:17:22;;;;;;;7.28;1.80;;;17.10;99.90;;;;;;4919786;29;20050;-94
2022/09/13 04:19:48;;;;;;;4.40;1.45;;;17.10;99.90;;;;;;4917936;29;20047;-96
2022/09/13 04:22:14;;;;;;;8.15;1.70;;;17.10;99.90;;;;;;4900419;29;20036;-94
2022/09/13 04:24:42;;;;;;;6.07;1.73;;;17.10;99.90;;;;;;4921986;29;20396;-96
2022/09/13 04:27:08;;;;;;;5.60;1.60;;;17.10;99.90;;;;;;4901715;29;20126;-96
2022/09/13 04:29:36;;;;;;;6.43;1.80;;;17.10;99.90;;;;;;4907184;29;20091;-96
2022/09/13 04:32:03;;;;;;;3.60;2.33;;;17.10;99.90;;;;;;4905456;29;20131;-96
2022/09/13 04:34:33;;;;;;;10.75;3.20;;;17.00;99.90;;;;;;4904071;29;20056;-96
2022/09/13 04:37:08;;;;;;;6.05;3.22;;;17.10;99.90;;;;;;4912746;29;20099;-96
2022/09/13 04:39:42;;;;;;;6.13;2.88;;;17.00;99.90;;;;;;4922504;29;20107;-96
2022/09/13 04:42:10;;;;;;;13.20;3.40;;;17.00;99.90;;;;;;4909456;29;20044;-96
2022/09/13 04:44:38;;;;;;;7.30;3.03;;;17.00;99.90;;;;;;4908613;29;20062;-96
2022/09/13 04:47:06;;;;;;;8.15;3.00;;;16.90;99.90;;;;;;4907137;29;20076;-96
2022/09/13 04:49:33;;;;;;;5.82;2.45;;;17.10;99.90;;;;;;4908085;29;20048;-96
2022/09/13 04:51:58;;;;;;;6.65;1.98;;;17.00;99.90;;;;;;4905742;29;20060;-96
2022/09/13 04:54:25;;;;;;;9.32;1.98;;;16.90;99.90;;;;;;4905454;29;20063;-96
2022/09/13 04:56:51;;;;;;;10.00;2.13;;;16.90;99.90;;;;;;4906034;29;20052;-96
2022/09/13 04:59:17;;;;;;;7.90;1.60;;;17.00;99.90;;;;;;4905304;29;20054;-96
2022/09/13 05:01:43;;;;;;;5.85;1.65;;;17.00;99.90;;;;;;4903470;29;20136;-96
2022/09/13 05:04:09;;;;;;;5.75;1.50;;;17.00;99.90;;;;;;4901274;29;20143;-95
2022/09/13 05:06:36;;;;;;;5.93;1.50;;;17.00;99.90;;;;;;4916179;29;20054;-96
2022/09/13 05:09:02;;;;;;;10.90;1.40;;;16.90;99.90;;;;;;4917267;29;20052;-96
2022/09/13 05:11:29;;;;;;;5.35;1.25;;;17.00;99.90;;;;;;4942289;23;20527;-96
2022/09/13 05:13:57;;;;;;;6.20;1.40;;;17.00;99.90;;;;;;4954712;29;20070;-96
2022/09/13 05:16:28;;;;;;;8.35;1.55;;;17.00;99.90;;;;;;4938867;29;20043;-96
2022/09/13 05:18:54;;;;;;;6.32;1.73;;;17.00;99.90;;;;;;4923004;29;20059;-96
2022/09/13 05:21:23;;;;;;;5.93;1.73;;;17.00;99.90;;;;;;4940089;28;20106;-96
2022/09/13 05:23:58;;;;;;;10.65;2.45;;;17.00;99.90;;;;;;4938673;29;20051;-96
2022/09/13 05:26:31;;;;;;;9.05;2.72;;;17.00;99.90;;;;;;4938345;29;20407;-95
2022/09/13 05:28:58;;;;;;;;;;;17.10;99.90;;;;;;4938559;29;20142;-95
2022/09/13 05:31:53;;;;;;;13.38;2.00;;;17.00;99.90;;;;;;4938279;29;19927;-95
2022/09/13 05:34:46;;;;;;;4.28;1.50;;;17.00;99.90;;;;;;4921810;29;20047;-94
2022/09/13 05:37:17;;;;;;;8.85;1.65;;;16.90;99.90;;;;;;4937946;29;20160;-94
2022/09/13 05:39:43;;;;;;;6.53;1.60;;;17.00;99.90;;;;;;4937905;29;20050;-96
2022/09/13 05:42:14;;;;;;;7.93;1.77;;;17.00;99.90;;;;;;4922439;29;20142;-96
2022/09/13 05:44:40;;;;;;;13.15;2.20;;;17.00;99.90;;;;;;4939448;29;20039;-96
2022/09/13 06:03:50;;;;;;;11.88;1.70;;;17.00;99.90;;;;;;4952198;29;20047;-94
2022/09/13 06:06:17;;;;;;;8.35;1.52;;;17.00;99.90;;;;;;4913214;29;20043;-94
2022/09/13 06:08:43;;;;;;;15.63;2.10;;;17.00;99.90;;;;;;4918181;29;20036;-94
2022/09/13 06:11:11;;;;;;;15.85;1.65;;;17.00;99.90;;;;;;4914632;29;20052;-94
2022/09/13 06:13:38;;;;;;;12.10;1.42;;;17.10;99.90;;;;;;4918530;29;20105;-94
2022/09/13 06:16:08;;;;;;;8.02;1.52;;;17.10;99.90;;;;;;4919041;29;20054;-95
2022/09/13 06:18:34;;;;;;;10.32;1.60;;;17.10;99.90;;;;;;4914536;29;20055;-94
2022/09/13 06:21:04;;;;;;;11.50;1.70;;;17.20;99.90;;;;;;4914360;29;20043;-93
2022/09/13 06:26:04;;;;;;;16.90;1.83;;;17.20;99.90;;;;;;4947432;29;20056;-96
2022/09/13 06:28:30;;;;;;;16.10;2.08;;;17.30;99.90;;;;;;4914309;29;20043;-95
2022/09/13 06:31:02;;;;;;;17.83;1.73;;;17.30;99.90;;;;;;4914287;29;20126;-95
2022/09/13 06:34:23;;;;;;;;;;;;;;;;;;;;;
2022/09/13 06:37:59;;;;;;;14.02;2.05;;;17.20;99.90;;;;;;4958995;28;20040;-96
2022/09/13 06:44:57;;;;;;;12.20;1.50;;;17.40;99.90;;;;;;4836928;29;20060;-96
2022/09/13 06:59:41;;;;;;;14.80;1.48;;;17.70;99.90;;;;;;4804561;29;20084;-96
2022/09/13 07:02:53;;;;;;;14.43;1.65;;;17.60;99.90;;;;;;4810165;29;20057;-96
2022/09/13 07:06:16;;;;;;;11.27;1.92;;;17.70;99.90;;;;;;4847451;29;20165;-95
2022/09/13 07:12:13;;;;;;;11.27;1.63;;;17.80;99.90;;;;;;4810850;29;20053;-96
2022/09/13 07:15:15;;;;;;;10.88;1.38;;;17.80;99.90;;;;;;4897663;23;20105;-87
2022/09/13 07:17:40;;;;;;;9.05;0.95;;;18.00;99.90;;;;;;4936471;28;20051;-87
2022/09/13 07:20:25;;;;;;;9.50;1.05;;;18.00;99.90;;;;;;4954354;28;20053;-87
2022/09/13 07:22:53;;;;;;;10.23;1.20;;;18.10;99.90;;;;;;4954275;28;20046;-87
2022/09/13 07:25:41;;;;;;;8.25;1.00;;;18.10;99.90;;;;;;4937945;28;20042;-87
2022/09/13 07:28:46;;;;;;;9.20;1.45;;;18.30;99.90;;;;;;4937990;28;20082;-88
2022/09/13 07:31:45;;;;;;;9.23;1.00;;;18.30;99.90;;;;;;4938521;28;20043;-87
2022/09/13 07:34:26;;;;;;;;;;;;;;;;;;;;;
2022/09/13 07:36:57;;;;;;;5.88;0.70;;;18.20;99.90;;;;;;5056594;23;20055;-90
2022/09/13 07:39:44;;;;;;;8.13;0.70;;;18.10;99.90;;;;;;4917445;29;20484;-88
2022/09/13 07:43:41;;;;;;;;;;;;;;;;;;;;;
2022/09/13 07:53:16;;;;;;;4.68;0.50;;;18.10;99.90;;;;;;4915385;29;20047;-88
2022/09/13 07:56:05;;;;;;;8.18;0.98;;;18.10;99.90;;;;;;4949214;23;20079;-88
2022/09/13 07:58:50;;;;;;;6.70;0.90;;;18.40;99.90;;;;;;4925113;28;20054;-89
2022/09/13 08:01:45;;;;;;;7.55;0.80;;;18.40;99.90;;;;;;4929868;28;20550;-89
2022/09/13 08:04:23;;;;;;;8.80;1.35;;;18.30;99.90;;;;;;4952809;28;20054;-89
2022/09/13 08:07:24;;;;;;;11.35;1.23;;;18.70;99.90;;;;;;5041740;23;20542;31
2022/09/13 08:13:42;;;;;;;12.65;1.35;;;19.00;99.90;;;;;;5522925;23;20485;-89
2022/09/13 08:24:53;;;;;;;7.38;0.65;;;18.50;99.90;;;;;;4914689;29;20058;-90
2022/09/13 08:27:48;;;;;;;8.50;0.90;;;18.60;99.90;;;;;;4915585;29;20397;-92
2022/09/13 08:30:55;;;;;;;8.15;1.00;;;18.70;99.90;;;;;;4913851;29;20162;-91
2022/09/13 08:33:34;;;;;;;7.22;0.88;;;18.90;99.90;;;;;;4888667;29;20060;-91
2022/09/13 08:36:53;;;;;;;7.47;0.90;;;19.00;99.90;;;;;;4922469;23;20142;-90
2022/09/13 08:39:38;;;;;;;8.18;1.17;;;19.10;99.90;;;;;;4909650;29;20486;-89
2022/09/13 08:42:32;;;;;;;7.78;0.90;;;19.40;99.90;;;;;;4914887;29;20051;-90
2022/09/13 08:44:58;;;;;;;7.85;0.93;;;19.20;99.90;;;;;;4935457;23;20051;-88
2022/09/13 08:47:40;;;;;;;12.57;1.20;;;19.00;99.90;;;;;;4916114;29;20199;-90
2022/09/13 08:50:30;;;;;;;9.07;1.13;;;18.90;99.90;;;;;;4927948;29;20168;-89
2022/09/13 08:53:18;;;;;;;8.10;0.70;;;19.00;99.90;;;;;;4919736;29;20047;-89
2022/09/13 08:56:04;;;;;;;9.50;1.05;;;19.20;99.90;;;;;;4917858;29;20058;-90
2022/09/13 09:02:01;;;;;;;6.97;0.90;;;19.30;99.90;;;;;;4934718;29;20047;-89
2022/09/13 09:04:45;;;;;;;8.57;1.45;;;19.10;99.90;;;;;;4918386;29;20055;-89
2022/09/13 09:07:51;;;;;;;10.05;0.73;;;18.90;99.90;;;;;;4917238;29;20044;-90
2022/09/13 09:10:31;;;;;;;9.40;0.88;;;18.80;99.90;;;;;;4918238;29;20492;-89
2022/09/13 09:13:24;;;;;;;4.95;0.73;;;18.90;99.90;;;;;;4902939;29;20060;-89
2022/09/13 09:15:54;;;;;;;6.32;0.60;;;19.10;99.90;;;;;;4915172;29;20071;-87
2022/09/13 09:18:28;;;;;;;11.82;0.90;;;19.20;99.90;;;;;;4898085;29;20052;-88
2022/09/13 09:21:12;;;;;;;10.25;1.17;;;19.40;99.90;;;;;;4898443;29;20052;-89
2022/09/13 09:23:46;;;;;;;6.97;0.90;;;19.50;99.90;;;;;;4897678;29;20052;-88
2022/09/13 09:26:20;;;;;;;7.38;1.20;;;19.80;99.90;;;;;;4899690;29;20044;-91
2022/09/13 09:28:54;;;;;;;8.63;0.73;;;19.90;99.90;;;;;;4898376;29;20052;-90
2022/09/13 09:31:33;;;;;;;9.52;0.95;;;19.80;99.90;;;;;;4930006;29;20106;-87
2022/09/13 09:34:21;;;;;;;5.68;0.85;;;19.70;99.90;;;;;;4929258;29;20051;-90
2022/09/13 09:37:01;;;;;;;9.60;0.90;;;19.70;99.90;;;;;;4913538;29;20048;-87
2022/09/13 09:39:50;;;;;;;8.90;1.00;;;19.80;99.90;;;;;;4897969;29;20179;-89
2022/09/13 09:42:21;;;;;;;5.45;0.70;;;19.90;99.90;;;;;;4897988;29;20058;-91
2022/09/13 09:44:51;;;;;;;3.42;0.60;;;20.00;99.90;;;;;;4898120;29;20112;-88
2022/09/13 09:47:23;;;;;;;6.15;1.00;;;19.90;99.90;;;;;;4915209;29;20055;-88
2022/09/13 09:50:09;;;;;;;7.13;0.73;;;19.80;99.90;;;;;;4932202;29;20139;-89
2022/09/13 09:52:58;;;;;;;7.38;1.08;;;19.70;99.90;;;;;;4932380;29;20054;-90
2022/09/13 09:55:29;;;;;;;5.03;0.73;;;19.80;99.90;;;;;;4916555;29;20067;-88
2022/09/13 09:58:05;;;;;;;9.10;1.00;;;20.00;99.90;;;;;;4932682;29;20527;-89
2022/09/13 10:00:38;;;;;;;8.93;0.85;;;19.90;99.90;;;;;;4932576;29;20135;-90
2022/09/13 10:03:25;;;;;;;7.90;0.70;;;20.10;99.90;;;;;;4945939;29;20058;-91
2022/09/13 10:06:09;;;;;;;7.88;0.98;;;20.10;99.90;;;;;;4933241;29;20082;-88
2022/09/13 10:08:43;;;;;;;6.85;0.80;;;20.10;99.90;;;;;;4931796;29;20449;-89
2022/09/13 10:17:26;;;;;;;8.63;1.10;;;19.80;99.90;;;;;;4937904;23;20047;-89
2022/09/13 10:23:50;;;;;;;10.05;1.00;;;19.50;99.90;;;;;;5037722;23;20522;-95
2022/09/13 10:26:20;;;;;;;8.70;1.17;;;19.50;99.90;;;;;;4941784;29;20048;-93
2022/09/13 10:28:51;;;;;;;8.23;1.00;;;19.70;99.90;;;;;;4939930;29;20088;-95
2022/09/13 10:31:19;;;;;;;9.45;1.58;;;20.00;99.90;;;;;;4940069;29;20197;-92
2022/09/13 10:33:49;;;;;;;5.85;0.85;;;20.20;99.90;;;;;;4941264;29;20094;-92
2022/09/13 10:36:19;;;;;;;7.63;0.82;;;20.30;99.90;;;;;;4940000;29;20051;-92
2022/09/13 10:39:01;;;;;;;7.45;0.80;;;20.40;99.90;;;;;;4939979;29;20532;-92
2022/09/13 10:41:30;;;;;;;6.60;0.80;;;20.30;99.90;;;;;;4944065;29;20051;-96
2022/09/13 10:43:58;;;;;;;11.57;1.33;;;20.00;99.90;;;;;;4944986;29;20046;-96
2022/09/13 10:46:31;;;;;;;7.72;0.90;;;20.00;99.90;;;;;;4940250;29;20055;-96
2022/09/13 10:48:57;;;;;;;;;;;20.00;99.90;;;;;;4927996;29;20050;-96
2022/09/13 10:51:25;;;;;;;6.00;0.70;;;19.90;99.90;;;;;;4925046;29;19922;-95
2022/09/13 10:54:14;;;;;;;4.82;0.85;;;20.10;99.90;;;;;;4946056;29;20043;-96
2022/09/13 10:56:42;;;;;;;6.93;0.77;;;20.20;99.90;;;;;;4941711;23;20075;-87
2022/09/13 10:59:23;;;;;;;11.35;1.20;;;20.40;99.90;;;;;;4911068;29;20056;-88
2022/09/13 11:02:21;;;;;;;4.05;0.40;;;20.60;99.90;;;;;;4896276;29;20058;-88
2022/09/13 11:04:56;;;;;;;7.72;1.02;;;20.80;99.90;;;;;;4912652;29;20552;-88
2022/09/13 11:07:37;;;;;;;6.10;0.82;;;20.90;99.90;;;;;;4910725;29;20044;-87
2022/09/13 11:10:16;;;;;;;6.00;1.17;;;21.00;99.90;;;;;;4895746;29;20119;-88
2022/09/13 11:13:01;;;;;;;6.95;0.88;;;20.90;99.90;;;;;;4910374;29;20609;-88
2022/09/13 11:15:41;;;;;;;5.22;0.55;;;21.00;99.90;;;;;;4911125;29;20056;-87
2022/09/13 11:18:36;;;;;;;5.50;0.90;;;21.00;99.90;;;;;;4911113;29;20036;-88
2022/09/13 11:21:25;;;;;;;6.20;0.80;;;21.10;99.90;;;;;;4912079;29;20048;-89
2022/09/13 11:24:04;;;;;;;5.10;0.73;;;21.00;99.90;;;;;;4911496;29;20503;-88
2022/09/13 11:26:47;;;;;;;10.05;0.70;;;20.90;99.90;;;;;;4910714;29;20127;-87
2022/09/13 11:29:13;;;;;;;;;;;20.90;99.90;;;;;;4895845;29;20052;-89
2022/09/13 11:31:46;;;;;;;6.60;0.77;;;20.90;99.90;;;;;;4911181;29;19982;-87
2022/09/13 11:34:11;;;;;;;;;;;20.90;99.90;;;;;;4910238;29;20524;-87
2022/09/13 11:36:50;;;;;;;7.82;1.00;;;20.70;99.90;;;;;;4910688;29;20045;-87
2022/09/13 11:39:35;;;;;;;6.43;1.00;;;20.60;99.90;;;;;;4910546;29;20086;-88
2022/09/13 11:42:19;;;;;;;7.43;0.90;;;20.50;99.90;;;;;;4910598;29;20048;-88
2022/09/13 11:45:01;;;;;;;9.20;1.05;;;20.60;99.90;;;;;;4911427;29;20386;-88
2022/09/13 11:47:54;;;;;;;9.48;1.00;;;20.60;99.90;;;;;;4910759;29;20040;-87
2022/09/13 11:50:49;;;;;;;6.50;1.08;;;20.80;99.90;;;;;;4911506;29;20119;-88
2022/09/13 11:53:49;;;;;;;8.80;1.08;;;20.70;99.90;;;;;;4910652;29;20048;-89
2022/09/13 11:56:22;;;;;;;7.03;1.10;;;20.70;99.90;;;;;;4913749;29;20048;-87
2022/09/13 11:58:57;;;;;;;5.82;0.90;;;20.70;99.90;;;;;;4914430;29;20484;-87
2022/09/13 12:01:31;;;;;;;9.88;0.98;;;20.70;99.90;;;;;;4914065;29;20087;-89
2022/09/13 12:04:00;;;;;;;8.30;0.75;;;20.60;99.90;;;;;;4914644;29;20055;-87
2022/09/13 12:06:32;;;;;;;6.70;0.75;;;20.70;99.90;;;;;;4914470;29;20058;-88
2022/09/13 12:09:20;;;;;;;9.48;1.13;;;20.80;99.90;;;;;;4913814;29;20040;-89
2022/09/13 12:11:53;;;;;;;9.23;1.05;;;20.90;99.90;;;;;;4914665;29;20052;-88
2022/09/13 12:14:24;;;;;;;6.68;1.10;;;20.90;99.90;;;;;;4914275;29;20050;-88
2022/09/13 12:16:57;;;;;;;8.40;1.20;;;20.90;99.90;;;;;;4913972;29;20039;-88
2022/09/13 12:19:42;;;;;;;8.70;0.90;;;20.90;99.90;;;;;;4914124;29;20090;-87
2022/09/13 12:22:09;;;;;;;10.02;1.30;;;21.00;99.90;;;;;;4914247;29;20044;-87
2022/09/13 12:24:50;;;;;;;12.35;1.05;;;21.10;99.90;;;;;;4898614;29;20048;-88
2022/09/13 12:27:30;;;;;;;11.65;1.98;;;21.10;99.90;;;;;;4899640;29;20047;-87
2022/09/13 12:30:08;;;;;;;9.55;1.13;;;21.10;99.90;;;;;;4899209;29;20063;-87
2022/09/13 12:32:37;;;;;;;10.75;1.60;;;21.10;99.90;;;;;;4898986;29;20043;-88
2022/09/13 12:35:12;;;;;;;9.07;1.17;;;21.00;99.90;;;;;;4899176;29;20223;-89
2022/09/13 12:38:12;;;;;;;9.43;1.10;;;20.70;99.90;;;;;;4912482;29;20060;-89
2022/09/13 12:40:53;;;;;;;10.00;1.67;;;20.60;99.90;;;;;;4899496;29;20164;-90
2022/09/13 12:43:25;;;;;;;9.40;1.40;;;20.60;99.90;;;;;;4898942;29;20052;-87
2022/09/13 12:46:01;;;;;;;10.95;1.20;;;20.40;99.90;;;;;;4898455;29;20134;-87
2022/09/13 12:48:56;;;;;;;6.70;1.15;;;20.30;99.90;;;;;;4898259;29;20139;-88
2022/09/13 12:51:37;;;;;;;10.98;1.40;;;20.30;99.90;;;;;;4898085;29;20048;-87
2022/09/13 12:54:20;;;;;;;7.60;1.20;;;20.30;99.90;;;;;;4898491;29;20128;-87
2022/09/13 12:57:18;;;;;;;7.78;1.20;;;20.30;99.90;;;;;;4898142;29;20078;-86
2022/09/13 13:00:11;;;;;;;9.80;1.42;;;20.30;99.90;;;;;;4896825;29;20215;-88
2022/09/13 13:02:41;;;;;;;9.20;0.95;;;20.30;99.90;;;;;;4898035;29;20107;-88
2022/09/13 13:05:32;;;;;;;7.55;0.70;;;20.20;99.90;;;;;;4898134;29;20495;-88
2022/09/13 13:08:02;;;;;;;11.63;1.02;;;20.10;99.90;;;;;;4897901;29;20131;-87
2022/09/13 13:10:35;;;;;;;9.85;1.08;;;19.90;99.90;;;;;;4897613;29;20056;-87
2022/09/13 13:13:22;;;;;;;15.93;1.40;;;19.80;99.90;;;;;;4912918;29;20054;-87
2022/09/13 13:15:48;;;;;;;6.90;0.73;;;19.80;99.90;;;;;;4917045;29;20452;-86
2022/09/13 13:18:29;;;;;;;9.15;1.02;;;19.70;99.90;;;;;;4916176;29;20047;-87
2022/09/13 13:20:54;;;;;;;7.13;1.10;;;19.70;99.90;;;;;;4915862;29;20052;-87
2022/09/13 13:23:34;;;;;;;8.07;1.10;;;19.70;99.90;;;;;;4916276;29;20055;-88
2022/09/13 13:26:06;;;;;;;9.82;1.30;;;19.70;99.90;;;;;;4916268;29;20621;-86
2022/09/13 13:28:44;;;;;;;9.77;1.27;;;19.70;99.90;;;;;;4916238;29;20046;-87
2022/09/13 13:31:30;;;;;;;10.93;0.98;;;19.80;99.90;;;;;;4916565;29;20063;-88
2022/09/13 13:34:05;;;;;;;9.70;1.73;;;19.80;99.90;;;;;;4915728;29;20184;-88
2022/09/13 13:36:44;;;;;;;14.45;1.35;;;19.80;99.90;;;;;;4916605;29;20055;-88
2022/09/13 13:39:22;;;;;;;10.45;1.30;;;19.70;99.90;;;;;;4916654;29;20039;-89
2022/09/13 13:41:54;;;;;;;7.70;0.90;;;19.70;99.90;;;;;;4916431;29;20051;-87
2022/09/13 13:44:20;;;;;;;7.53;1.35;;;19.80;99.90;;;;;;4915415;29;20058;-87
2022/09/13 13:46:47;;;;;;;10.23;1.38;;;19.80;99.90;;;;;;4916264;29;20055;-88
2022/09/13 13:49:29;;;;;;;13.15;1.25;;;19.70;99.90;;;;;;4898733;29;20094;-87
2022/09/13 13:52:07;;;;;;;7.25;1.00;;;19.80;99.90;;;;;;4897105;29;20122;-87
2022/09/13 13:54:42;;;;;;;6.93;0.98;;;19.70;99.90;;;;;;4897092;29;20079;-88
2022/09/13 13:57:32;;;;;;;10.55;1.30;;;19.70;99.90;;;;;;4896773;29;20060;-87
2022/09/13 14:00:20;;;;;;;11.63;1.30;;;19.80;99.90;;;;;;4897934;29;20396;-87
2022/09/13 14:02:48;;;;;;;7.25;0.98;;;19.90;99.90;;;;;;4896721;29;20063;-87
2022/09/13 14:05:43;;;;;;;6.85;1.02;;;20.10;99.90;;;;;;4897329;29;20412;-89
2022/09/13 14:08:22;;;;;;;8.48;0.90;;;20.20;99.90;;;;;;4895953;29;20044;-89
2022/09/13 14:11:03;;;;;;;10.18;1.65;;;20.30;99.90;;;;;;4898021;29;20055;-88
2022/09/13 14:13:43;;;;;;;8.48;1.00;;;20.10;99.90;;;;;;4897458;29;20090;-88
2022/09/13 14:16:30;;;;;;;7.68;1.10;;;20.10;99.90;;;;;;4897132;29;20143;-89
2022/09/13 14:19:16;;;;;;;6.63;1.23;;;20.10;99.90;;;;;;4898233;29;20059;-88
2022/09/13 14:21:45;;;;;;;6.95;1.00;;;20.10;99.90;;;;;;4896583;29;20048;-88
2022/09/13 14:24:11;;;;;;;7.07;0.85;;;20.00;99.90;;;;;;4896674;29;20477;-88
2022/09/13 14:26:38;;;;;;;10.20;1.58;;;20.00;99.90;;;;;;4896983;29;20066;-88
2022/09/13 14:29:07;;;;;;;7.03;0.90;;;20.00;99.90;;;;;;4897077;29;20062;-87
2022/09/13 14:31:32;;;;;;;7.13;1.20;;;20.00;99.90;;;;;;4896874;29;20056;-87
2022/09/13 14:33:58;;;;;;;9.10;1.40;;;20.10;99.90;;;;;;4897101;29;20051;-88
2022/09/13 14:36:26;;;;;;;12.52;2.47;;;20.10;99.90;;;;;;4897363;29;20043;-89
2022/09/13 14:38:57;;;;;;;6.45;0.90;;;20.10;99.90;;;;;;4916764;29;20075;-88
2022/09/13 14:41:35;;;;;;;5.18;0.80;;;20.10;99.90;;;;;;4914771;29;20094;-89
2022/09/13 14:44:23;;;;;;;6.95;0.82;;;20.00;99.90;;;;;;4916190;29;20070;-89
2022/09/13 14:46:58;;;;;;;6.63;0.93;;;19.90;99.90;;;;;;4917265;29;20052;-87
2022/09/13 14:49:29;;;;;;;5.43;0.60;;;19.80;99.90;;;;;;4917630;29;20107;-87
2022/09/13 14:51:59;;;;;;;5.43;1.05;;;19.70;99.90;;;;;;4917298;29;20459;-89